Time;durP1;ratioP1;P1;durP2;ratioP2;P2;SDS_P1;SDS_P2;PMS_P1;PMS_P2;Temp;Humidity;BMP_temperature;BMP_pressure;BME280_temperature;BME280_humidity;BME280_pressure;Samples;Min_cycle;Max_cycle;Signal;HPM_P1;HPM_P2
2024/01/06 00:01:29;;;;;;;21.90;14.38;;;6.30;99.90;;;;;;4946444;28;20102;-76
2024/01/06 00:03:55;;;;;;;16.10;11.60;;;6.30;99.90;;;;;;4961161;28;20030;-76
2024/01/06 00:06:20;;;;;;;11.15;5.50;;;6.30;99.90;;;;;;4930838;28;20039;-76
2024/01/06 00:08:46;;;;;;;19.98;12.13;;;6.30;99.90;;;;;;4946499;28;20101;-76
2024/01/06 00:11:12;;;;;;;22.65;13.35;;;6.40;99.90;;;;;;4947056;28;20369;-76
2024/01/06 00:13:37;;;;;;;21.00;13.30;;;6.30;99.90;;;;;;4945699;28;20105;-76
2024/01/06 00:16:03;;;;;;;21.52;14.45;;;6.30;99.90;;;;;;4942155;28;20031;-76
2024/01/06 00:18:28;;;;;;;20.52;12.63;;;6.30;99.90;;;;;;4929478;28;20484;-77
2024/01/06 00:20:54;;;;;;;17.75;12.77;;;6.30;99.90;;;;;;4931359;28;20106;-76
2024/01/06 00:23:19;;;;;;;14.30;7.20;;;6.30;99.90;;;;;;4945681;28;20552;-76
2024/01/06 00:25:45;;;;;;;18.00;11.95;;;6.30;99.90;;;;;;4949554;28;20488;-77
2024/01/06 00:28:11;;;;;;;17.50;11.70;;;6.30;99.90;;;;;;4947514;28;20085;-77
2024/01/06 00:30:36;;;;;;;16.67;10.07;;;6.30;99.90;;;;;;4945250;28;20101;-76
2024/01/06 00:33:02;;;;;;;14.43;9.13;;;6.20;99.90;;;;;;4959940;28;20027;-77
2024/01/06 00:35:27;;;;;;;14.32;9.10;;;6.30;99.90;;;;;;4927298;28;20035;-77
2024/01/06 00:37:55;;;;;;;14.70;9.77;;;6.30;99.90;;;;;;4932799;28;20170;-77
2024/01/06 00:40:20;;;;;;;16.30;9.40;;;6.30;99.90;;;;;;4945498;28;20501;-78
2024/01/06 00:42:46;;;;;;;16.83;10.55;;;6.30;99.90;;;;;;4912069;28;20046;-78
2024/01/06 00:45:12;;;;;;;18.58;12.35;;;6.30;99.90;;;;;;4943392;28;20030;-77
2024/01/06 00:47:37;;;;;;;14.60;8.55;;;6.40;99.90;;;;;;4960885;28;20028;-78
2024/01/06 00:50:03;;;;;;;15.05;9.15;;;6.30;99.90;;;;;;4931092;28;20035;-78
2024/01/06 00:52:28;;;;;;;14.35;10.05;;;6.30;99.90;;;;;;4958922;28;20114;-78
2024/01/06 00:54:54;;;;;;;13.02;8.45;;;6.30;99.90;;;;;;4929653;28;20098;-77
2024/01/06 00:57:23;;;;;;;19.20;10.50;;;6.30;99.90;;;;;;4930979;28;20034;-77
2024/01/06 00:59:49;;;;;;;15.15;9.05;;;6.30;99.90;;;;;;4943976;28;20035;-78
2024/01/06 01:02:15;;;;;;;17.77;8.27;;;6.20;99.90;;;;;;4944506;28;20515;-77
2024/01/06 01:04:40;;;;;;;20.70;12.50;;;6.30;99.90;;;;;;4929549;28;20031;-77
2024/01/06 01:07:06;;;;;;;18.02;12.95;;;6.20;99.90;;;;;;4932472;28;20039;-77
2024/01/06 01:09:31;;;;;;;17.38;10.40;;;6.20;99.90;;;;;;4926753;28;20223;-77
2024/01/06 01:11:57;;;;;;;14.90;9.82;;;6.20;99.90;;;;;;4942317;28;20034;-77
2024/01/06 01:14:22;;;;;;;11.38;6.43;;;6.20;99.90;;;;;;4944582;28;20113;-77
2024/01/06 01:16:48;;;;;;;10.85;5.85;;;6.20;99.90;;;;;;4945112;28;20110;-78
2024/01/06 01:19:14;;;;;;;17.65;11.93;;;6.20;99.90;;;;;;4926419;28;20038;-78
2024/01/06 01:21:39;;;;;;;18.15;12.13;;;6.20;99.90;;;;;;4949409;28;20035;-78
2024/01/06 01:24:05;;;;;;;19.48;13.07;;;6.20;99.90;;;;;;4944546;28;20386;-78
2024/01/06 01:26:31;;;;;;;21.75;11.95;;;6.20;99.90;;;;;;4929007;28;20504;-78
2024/01/06 01:28:56;;;;;;;19.60;12.80;;;6.30;99.90;;;;;;4928614;28;20082;-78
2024/01/06 01:31:22;;;;;;;20.10;11.27;;;6.30;99.90;;;;;;4942667;28;20062;-78
2024/01/06 01:33:47;;;;;;;23.73;15.02;;;6.30;99.90;;;;;;4927147;28;20062;-78
2024/01/06 01:36:13;;;;;;;18.35;10.98;;;6.30;99.90;;;;;;4960292;28;20055;-79
2024/01/06 01:38:38;;;;;;;21.90;15.18;;;6.20;99.90;;;;;;4942004;28;20520;-78
2024/01/06 01:41:04;;;;;;;27.52;15.98;;;6.20;99.90;;;;;;4928865;28;20034;-78
2024/01/06 01:43:30;;;;;;;15.50;9.43;;;6.30;99.90;;;;;;4943497;28;20034;-78
2024/01/06 01:45:56;;;;;;;17.48;9.98;;;6.30;99.90;;;;;;4929280;28;20038;-78
2024/01/06 01:48:22;;;;;;;22.67;14.07;;;6.30;99.90;;;;;;4945100;28;20038;-78
2024/01/06 01:50:47;;;;;;;11.70;6.60;;;6.30;99.90;;;;;;4931521;28;21318;-78
2024/01/06 01:53:13;;;;;;;19.20;11.63;;;6.30;99.90;;;;;;4948315;28;20109;-78
2024/01/06 01:55:39;;;;;;;23.30;15.00;;;6.30;99.90;;;;;;4964004;28;20049;-78
2024/01/06 01:58:05;;;;;;;27.00;17.52;;;6.30;99.90;;;;;;4914975;28;20563;-77
2024/01/06 02:00:31;;;;;;;25.73;15.43;;;6.20;99.90;;;;;;4945495;28;20078;-78
2024/01/06 02:02:57;;;;;;;20.25;13.00;;;6.20;99.90;;;;;;4948046;28;20043;-78
2024/01/06 02:05:23;;;;;;;29.50;16.35;;;6.20;99.90;;;;;;4930586;28;20031;-77
2024/01/06 02:07:50;;;;;;;29.15;17.05;;;6.20;99.90;;;;;;4929503;28;20027;-77
2024/01/06 02:10:16;;;;;;;27.52;17.48;;;6.20;99.90;;;;;;4928647;28;20090;-78
2024/01/06 02:12:42;;;;;;;29.73;17.13;;;6.20;99.90;;;;;;4962503;28;20456;-78
2024/01/06 02:15:08;;;;;;;18.52;11.02;;;6.20;99.90;;;;;;4946617;28;20038;-78
2024/01/06 02:17:33;;;;;;;19.40;12.00;;;6.20;99.90;;;;;;4944061;28;20042;-76
2024/01/06 02:19:59;;;;;;;26.65;16.30;;;6.20;99.90;;;;;;4928491;28;20074;-76
2024/01/06 02:22:24;;;;;;;23.65;13.35;;;6.30;99.90;;;;;;4933318;28;20114;-77
2024/01/06 02:24:50;;;;;;;21.88;14.90;;;6.30;99.90;;;;;;4930478;28;20473;-76
2024/01/06 02:27:15;;;;;;;28.73;15.70;;;6.30;99.90;;;;;;4946524;28;20053;-76
2024/01/06 02:29:41;;;;;;;33.30;18.38;;;6.30;99.90;;;;;;4959213;28;20074;-76
2024/01/06 02:32:06;;;;;;;28.02;16.35;;;6.30;99.90;;;;;;4927891;28;20393;-76
2024/01/06 02:34:32;;;;;;;22.25;13.50;;;6.30;99.90;;;;;;4932395;28;20030;-77
2024/01/06 02:36:58;;;;;;;30.20;17.13;;;6.30;99.90;;;;;;4944993;28;20027;-77
2024/01/06 02:39:23;;;;;;;34.80;18.88;;;6.30;99.90;;;;;;4932956;28;20023;-77
2024/01/06 02:41:49;;;;;;;21.48;12.20;;;6.30;99.90;;;;;;4945389;28;20552;-77
2024/01/06 02:44:15;;;;;;;25.23;15.63;;;6.30;99.90;;;;;;4936476;28;20023;-77
2024/01/06 02:46:40;;;;;;;24.08;13.55;;;6.20;99.90;;;;;;4938598;28;20724;-77
2024/01/06 02:49:07;;;;;;;32.42;18.08;;;6.20;99.90;;;;;;4947874;28;20497;-76
2024/01/06 02:51:32;;;;;;;16.00;11.20;;;6.20;99.90;;;;;;4930922;28;20398;-77
2024/01/06 02:53:58;;;;;;;32.33;18.48;;;6.20;99.90;;;;;;4928572;28;20093;-78
2024/01/06 02:56:24;;;;;;;21.50;12.68;;;6.20;99.90;;;;;;4943271;28;20031;-78
2024/01/06 02:58:49;;;;;;;28.55;17.38;;;6.20;99.90;;;;;;4914859;28;20035;-78
2024/01/06 03:01:15;;;;;;;30.50;18.10;;;6.20;99.90;;;;;;4943522;28;20039;-78
2024/01/06 03:03:40;;;;;;;22.20;13.25;;;6.20;99.90;;;;;;4960256;28;20564;-78
2024/01/06 03:06:06;;;;;;;26.75;16.65;;;6.20;99.90;;;;;;4941671;28;20074;-77
2024/01/06 03:08:32;;;;;;;32.05;16.40;;;6.20;99.90;;;;;;4943971;28;20686;-77
2024/01/06 03:10:57;;;;;;;39.78;22.15;;;6.20;99.90;;;;;;4947417;28;20049;-77
2024/01/06 03:13:23;;;;;;;34.83;18.75;;;6.30;99.90;;;;;;4913177;28;20034;-76
2024/01/06 03:15:48;;;;;;;39.05;20.13;;;6.20;99.90;;;;;;4929166;28;20054;-77
2024/01/06 03:18:14;;;;;;;37.80;20.45;;;6.20;99.90;;;;;;4957267;28;20031;-76
2024/01/06 03:20:40;;;;;;;38.00;21.85;;;6.20;99.90;;;;;;4922443;28;20489;-77
2024/01/06 03:23:05;;;;;;;42.05;23.33;;;6.20;99.90;;;;;;4942346;28;20465;-76
2024/01/06 03:25:31;;;;;;;30.30;17.27;;;6.20;99.90;;;;;;4944043;28;20396;-77
2024/01/06 03:27:56;;;;;;;40.75;22.38;;;6.20;99.90;;;;;;4943144;28;20038;-77
2024/01/06 03:30:22;;;;;;;43.05;25.20;;;6.20;99.90;;;;;;4927281;28;20031;-77
2024/01/06 03:32:47;;;;;;;40.15;19.58;;;6.10;99.90;;;;;;4961863;28;20520;-77
2024/01/06 03:35:13;;;;;;;42.03;22.23;;;6.10;99.90;;;;;;4944224;28;20039;-76
2024/01/06 03:37:38;;;;;;;45.33;24.65;;;6.10;99.90;;;;;;4932053;28;20038;-77
2024/01/06 03:40:04;;;;;;;40.22;21.45;;;6.00;99.90;;;;;;4960353;28;20038;-76
2024/01/06 03:42:30;;;;;;;37.45;19.02;;;6.00;99.90;;;;;;4977989;28;20030;-77
2024/01/06 03:44:56;;;;;;;30.02;15.90;;;6.00;99.90;;;;;;4959305;28;20034;-77
2024/01/06 03:47:22;;;;;;;26.13;14.25;;;5.90;99.90;;;;;;4946761;28;20034;-76
2024/01/06 03:49:47;;;;;;;23.98;12.52;;;6.00;99.90;;;;;;4961046;28;20833;-76
2024/01/06 03:52:13;;;;;;;22.98;12.57;;;6.00;99.90;;;;;;4960670;28;20041;-76
2024/01/06 03:54:39;;;;;;;22.77;11.70;;;6.00;99.90;;;;;;4948013;28;20019;-76
2024/01/06 03:57:05;;;;;;;21.65;11.60;;;6.00;99.90;;;;;;4950348;28;20030;-77
2024/01/06 03:59:30;;;;;;;21.30;10.55;;;5.90;99.90;;;;;;4927223;28;20039;-76
2024/01/06 04:01:56;;;;;;;20.35;10.88;;;5.90;99.90;;;;;;4947402;28;20114;-77
2024/01/06 04:04:21;;;;;;;20.65;11.68;;;5.90;99.90;;;;;;4959278;28;20034;-76
2024/01/06 04:06:47;;;;;;;23.02;12.65;;;5.90;99.90;;;;;;4932138;28;20404;-76
2024/01/06 04:09:12;;;;;;;20.15;11.20;;;5.90;99.90;;;;;;4947853;28;20041;-76
2024/01/06 04:11:38;;;;;;;22.70;12.10;;;5.90;99.90;;;;;;4959692;28;20065;-76
2024/01/06 04:14:03;;;;;;;19.95;10.52;;;5.80;99.90;;;;;;4926823;28;20511;-76
2024/01/06 04:16:29;;;;;;;18.67;11.18;;;5.80;99.90;;;;;;4960486;28;20031;-76
2024/01/06 04:18:55;;;;;;;19.85;10.68;;;5.80;99.90;;;;;;4931406;28;20079;-76
2024/01/06 04:21:20;;;;;;;19.10;9.77;;;5.70;99.90;;;;;;4943306;28;20412;-76
2024/01/06 04:23:46;;;;;;;20.75;10.52;;;5.70;99.90;;;;;;4963698;28;20061;-76
2024/01/06 04:26:11;;;;;;;19.48;10.52;;;5.80;99.90;;;;;;4945656;28;20043;-76
2024/01/06 04:28:37;;;;;;;18.98;9.45;;;5.70;99.90;;;;;;4931645;28;24942;-76
2024/01/06 04:31:02;;;;;;;16.13;9.25;;;5.70;99.90;;;;;;4946438;28;20039;-76
2024/01/06 04:33:28;;;;;;;17.92;10.45;;;5.70;99.90;;;;;;4935997;28;20397;-77
2024/01/06 04:35:54;;;;;;;17.15;8.48;;;5.60;99.90;;;;;;4957553;28;20030;-76
2024/01/06 04:38:19;;;;;;;17.52;9.75;;;5.60;99.90;;;;;;4945802;28;20031;-76
2024/01/06 04:40:45;;;;;;;16.48;9.25;;;5.60;99.90;;;;;;4931041;28;20452;-76
2024/01/06 04:43:11;;;;;;;16.10;8.50;;;5.60;99.90;;;;;;4928614;28;20575;-76
2024/01/06 04:45:37;;;;;;;19.23;9.98;;;5.60;99.90;;;;;;4930320;28;20058;-75
2024/01/06 04:48:03;;;;;;;19.90;11.80;;;5.50;99.90;;;;;;4926858;28;20066;-76
2024/01/06 04:50:29;;;;;;;22.35;10.63;;;5.40;99.90;;;;;;4928773;28;20039;-77
2024/01/06 04:52:54;;;;;;;18.20;8.57;;;5.30;99.90;;;;;;4956711;28;20505;-76
2024/01/06 04:55:20;;;;;;;17.65;8.63;;;5.30;99.90;;;;;;4946557;28;20433;-77
2024/01/06 04:57:45;;;;;;;18.48;8.75;;;5.40;99.90;;;;;;4912410;28;20073;-77
2024/01/06 05:00:12;;;;;;;15.32;7.13;;;5.40;99.90;;;;;;4930270;28;20051;-77
2024/01/06 05:02:37;;;;;;;19.00;9.73;;;5.50;99.90;;;;;;4930002;28;20129;-77
2024/01/06 05:05:03;;;;;;;20.77;9.27;;;5.40;99.90;;;;;;4959146;28;20130;-76
2024/01/06 05:07:29;;;;;;;18.25;9.57;;;5.40;99.90;;;;;;4958847;28;20039;-77
2024/01/06 05:09:55;;;;;;;20.23;11.20;;;5.40;99.90;;;;;;4958801;28;20619;-77
2024/01/06 05:12:21;;;;;;;21.13;9.73;;;5.40;99.90;;;;;;4928768;28;20221;-77
2024/01/06 05:14:47;;;;;;;15.23;8.13;;;5.40;99.90;;;;;;4929445;28;20395;-76
2024/01/06 05:17:12;;;;;;;14.52;8.52;;;5.40;99.90;;;;;;4929652;28;20034;-76
2024/01/06 05:19:38;;;;;;;21.23;10.52;;;5.40;99.90;;;;;;4927953;28;20106;-76
2024/01/06 05:22:03;;;;;;;20.00;10.07;;;5.40;99.90;;;;;;4945131;28;20050;-77
2024/01/06 05:24:29;;;;;;;15.48;7.30;;;5.30;99.90;;;;;;4961064;28;20037;-77
2024/01/06 05:26:54;;;;;;;18.58;9.70;;;5.40;99.90;;;;;;4935553;28;20027;-76
2024/01/06 05:29:20;;;;;;;19.75;10.27;;;5.40;99.90;;;;;;4930141;28;20118;-77
2024/01/06 05:31:48;;;;;;;17.05;8.90;;;5.20;99.90;;;;;;4945556;28;20043;-77
2024/01/06 05:34:14;;;;;;;14.60;8.13;;;5.30;99.90;;;;;;4960952;28;20031;-77
2024/01/06 05:36:40;;;;;;;16.95;8.70;;;5.30;99.90;;;;;;4939096;28;20497;-77
2024/01/06 05:39:07;;;;;;;16.38;8.88;;;5.30;99.90;;;;;;4930091;28;20049;-77
2024/01/06 05:41:38;;;;;;;15.57;8.50;;;5.30;99.90;;;;;;4940503;28;20097;-77
2024/01/06 05:44:04;;;;;;;15.32;8.35;;;5.30;99.90;;;;;;4944555;28;20121;-76
2024/01/06 05:46:30;;;;;;;15.82;8.27;;;5.30;99.90;;;;;;4936348;28;20517;-77
2024/01/06 05:48:56;;;;;;;17.40;9.07;;;5.20;99.90;;;;;;4943550;28;20026;-77
2024/01/06 05:51:21;;;;;;;16.85;8.55;;;5.20;99.90;;;;;;4942941;28;20404;-77
2024/01/06 05:53:47;;;;;;;17.23;7.80;;;5.10;99.90;;;;;;4946152;28;20035;-76
2024/01/06 05:56:24;;;;;;;17.60;8.80;;;5.10;99.90;;;;;;4942848;28;20058;-77
2024/01/06 05:58:49;;;;;;;18.92;9.82;;;5.10;99.90;;;;;;4914616;28;20038;-77
2024/01/06 06:01:15;;;;;;;18.25;9.02;;;5.10;99.90;;;;;;4928243;28;20041;-77
2024/01/06 06:03:40;;;;;;;16.98;9.43;;;5.10;99.90;;;;;;4944745;28;20184;-77
2024/01/06 06:06:06;;;;;;;19.70;9.88;;;5.00;99.90;;;;;;4932690;28;20121;-77
2024/01/06 06:08:32;;;;;;;18.55;9.95;;;5.10;99.90;;;;;;4961640;28;20039;-77
2024/01/06 06:11:10;;;;;;;18.42;9.60;;;5.00;99.90;;;;;;4928594;28;20097;-77
2024/01/06 06:13:37;;;;;;;20.20;10.57;;;5.00;99.90;;;;;;4914204;28;20066;-77
2024/01/06 06:16:03;;;;;;;17.88;9.23;;;5.00;99.90;;;;;;4944666;28;20158;-77
2024/01/06 06:18:29;;;;;;;17.30;9.20;;;5.00;99.90;;;;;;4938719;28;20030;-77
2024/01/06 06:20:55;;;;;;;17.02;8.40;;;5.10;99.90;;;;;;4926539;28;20050;-77
2024/01/06 06:23:20;;;;;;;18.13;8.88;;;5.10;99.90;;;;;;4944975;28;20037;-77
2024/01/06 06:25:46;;;;;;;24.95;10.63;;;5.10;99.90;;;;;;4927042;28;20176;-77
2024/01/06 06:28:11;;;;;;;14.82;8.02;;;5.10;99.90;;;;;;4927194;28;20179;-77
2024/01/06 06:30:37;;;;;;;13.98;7.47;;;5.10;99.90;;;;;;4957650;28;20069;-77
2024/01/06 06:33:03;;;;;;;13.55;7.25;;;5.10;99.90;;;;;;4926920;28;20232;-78
2024/01/06 06:35:28;;;;;;;13.60;7.18;;;5.10;99.90;;;;;;4943787;28;20556;-77
2024/01/06 06:37:54;;;;;;;14.38;8.00;;;5.10;99.90;;;;;;4926447;28;20094;-79
2024/01/06 06:40:19;;;;;;;12.10;6.43;;;5.00;99.90;;;;;;4928688;28;20050;-78
2024/01/06 06:42:45;;;;;;;13.45;7.00;;;5.10;99.90;;;;;;4971823;28;20031;-78
2024/01/06 06:45:13;;;;;;;11.88;6.57;;;5.10;99.90;;;;;;4940427;28;20023;-78
2024/01/06 06:47:39;;;;;;;14.48;8.00;;;5.10;99.90;;;;;;4928979;28;20049;-79
2024/01/06 06:50:05;;;;;;;15.18;7.97;;;5.10;99.90;;;;;;4944374;28;20039;-78
2024/01/06 06:52:30;;;;;;;9.82;5.57;;;5.10;99.90;;;;;;4927864;28;20066;-78
2024/01/06 06:54:56;;;;;;;17.88;9.23;;;5.20;99.90;;;;;;4925694;28;20031;-78
2024/01/06 06:57:21;;;;;;;14.38;7.75;;;5.10;99.90;;;;;;4945207;28;20412;-78
2024/01/06 06:59:47;;;;;;;18.70;12.32;;;5.00;99.90;;;;;;4923793;28;20126;-78
2024/01/06 07:02:13;;;;;;;22.08;11.90;;;5.00;99.90;;;;;;4914030;28;20038;-78
2024/01/06 07:04:38;;;;;;;21.85;13.35;;;4.90;99.90;;;;;;4944709;28;20101;-77
2024/01/06 07:07:04;;;;;;;19.33;12.10;;;4.80;99.90;;;;;;4946952;28;20485;-77
2024/01/06 07:09:30;;;;;;;23.42;13.25;;;4.80;99.90;;;;;;4960890;28;20039;-78
2024/01/06 07:11:55;;;;;;;24.17;12.15;;;4.80;99.90;;;;;;4946536;28;20027;-78
2024/01/06 07:14:21;;;;;;;26.88;16.88;;;4.90;99.90;;;;;;4916897;28;20039;-78
2024/01/06 07:16:48;;;;;;;28.25;14.43;;;4.80;99.90;;;;;;4931875;28;20035;-78
2024/01/06 07:19:14;;;;;;;26.10;14.73;;;4.70;99.90;;;;;;4914707;28;20031;-78
2024/01/06 07:21:40;;;;;;;28.30;16.45;;;4.70;99.90;;;;;;4931095;28;20034;-78
2024/01/06 07:24:05;;;;;;;29.88;16.50;;;4.70;99.90;;;;;;4946471;28;20035;-78
2024/01/06 07:26:31;;;;;;;25.33;14.50;;;4.70;99.90;;;;;;4945716;28;20039;-78
2024/01/06 07:28:56;;;;;;;29.10;15.82;;;4.70;99.90;;;;;;4946828;28;20077;-78
2024/01/06 07:31:22;;;;;;;26.08;14.05;;;4.70;99.90;;;;;;4933822;28;20412;-78
2024/01/06 07:33:47;;;;;;;28.20;15.38;;;4.70;99.90;;;;;;4964314;28;20495;-77
2024/01/06 07:36:13;;;;;;;29.63;16.75;;;4.70;99.90;;;;;;4947770;28;20983;-77
2024/01/06 07:38:41;;;;;;;31.42;18.70;;;4.70;99.90;;;;;;4938460;28;20057;-78
2024/01/06 07:41:06;;;;;;;29.38;16.55;;;4.60;99.90;;;;;;4932779;28;20408;-78
2024/01/06 07:43:32;;;;;;;29.45;15.95;;;4.60;99.90;;;;;;4930687;28;20042;-78
2024/01/06 07:45:58;;;;;;;26.10;16.40;;;4.60;99.90;;;;;;4943830;28;20057;-78
2024/01/06 07:48:23;;;;;;;20.10;9.82;;;4.60;99.90;;;;;;4930677;28;20034;-77
2024/01/06 07:50:49;;;;;;;27.02;14.48;;;4.60;99.90;;;;;;4944280;28;20039;-78
2024/01/06 07:53:15;;;;;;;27.38;13.27;;;4.60;99.90;;;;;;4963671;28;20042;-77
2024/01/06 07:55:40;;;;;;;31.27;15.70;;;4.50;99.90;;;;;;4927001;28;20031;-77
2024/01/06 07:58:06;;;;;;;23.38;13.57;;;4.50;99.90;;;;;;4945662;28;20046;-78
2024/01/06 08:00:31;;;;;;;20.90;10.65;;;4.50;99.90;;;;;;4944515;28;20049;-77
2024/01/06 08:02:57;;;;;;;24.63;15.27;;;4.60;99.90;;;;;;4960127;28;20034;-77
2024/01/06 08:05:23;;;;;;;29.90;13.55;;;4.50;99.90;;;;;;4962404;28;20107;-77
2024/01/06 08:07:51;;;;;;;32.05;13.90;;;4.50;99.90;;;;;;4930743;28;20031;-78
2024/01/06 08:10:20;;;;;;;34.88;15.48;;;4.40;99.90;;;;;;4949552;28;20121;-78
2024/01/06 08:12:46;;;;;;;27.33;14.93;;;4.50;99.90;;;;;;4949091;28;20126;-78
2024/01/06 08:15:11;;;;;;;28.58;14.07;;;4.50;99.90;;;;;;4961024;28;20182;-77
2024/01/06 08:17:38;;;;;;;31.83;16.52;;;4.60;99.90;;;;;;4945064;28;20036;-78
2024/01/06 08:20:04;;;;;;;25.30;13.00;;;4.40;99.90;;;;;;4948062;28;20031;-77
2024/01/06 08:22:30;;;;;;;30.75;14.05;;;4.40;99.90;;;;;;4944912;28;20034;-77
2024/01/06 08:24:56;;;;;;;26.38;12.30;;;4.50;99.90;;;;;;4943132;28;20028;-76
2024/01/06 08:27:23;;;;;;;28.48;15.68;;;4.50;99.90;;;;;;4960306;28;20075;-77
2024/01/06 08:29:49;;;;;;;27.55;12.32;;;4.50;99.90;;;;;;4946574;28;20378;-77
2024/01/06 08:32:16;;;;;;;25.48;12.65;;;4.60;99.90;;;;;;4946916;28;20096;-77
2024/01/06 08:34:42;;;;;;;26.73;12.75;;;4.50;99.90;;;;;;4948385;28;20030;-77
2024/01/06 08:37:07;;;;;;;25.42;11.68;;;4.50;99.90;;;;;;4928557;28;20601;-77
2024/01/06 08:39:33;;;;;;;30.77;14.40;;;4.60;99.90;;;;;;4914599;28;20074;-77
2024/01/06 08:41:58;;;;;;;28.00;13.60;;;4.50;99.90;;;;;;4959395;28;20041;-77
2024/01/06 08:44:24;;;;;;;27.00;13.80;;;4.60;99.90;;;;;;4947382;28;20027;-77
2024/01/06 08:46:50;;;;;;;30.63;12.90;;;4.50;99.90;;;;;;4959858;28;20031;-77
2024/01/06 08:49:15;;;;;;;20.02;11.07;;;4.50;99.90;;;;;;4946734;28;20078;-78
2024/01/06 08:51:41;;;;;;;30.00;13.27;;;4.60;99.90;;;;;;4945754;28;20047;-78
2024/01/06 08:54:07;;;;;;;27.73;12.82;;;4.50;99.90;;;;;;4942775;28;20034;-78
2024/01/06 08:56:33;;;;;;;25.65;12.55;;;4.40;99.90;;;;;;4946098;28;20505;-77
2024/01/06 08:58:59;;;;;;;30.00;12.55;;;4.50;99.90;;;;;;4930882;28;20510;-78
2024/01/06 09:01:24;;;;;;;28.67;12.45;;;4.50;99.90;;;;;;4944130;28;20038;-77
2024/01/06 09:03:50;;;;;;;29.20;13.77;;;4.40;99.90;;;;;;4926794;28;20035;-78
2024/01/06 09:06:15;;;;;;;26.70;12.48;;;4.40;99.90;;;;;;4942065;28;20039;-77
2024/01/06 09:08:41;;;;;;;23.80;13.13;;;4.40;99.90;;;;;;4929537;28;20077;-78
2024/01/06 09:11:07;;;;;;;24.23;11.32;;;4.40;99.90;;;;;;4930861;28;20054;-78
2024/01/06 09:13:32;;;;;;;25.63;11.30;;;4.50;99.90;;;;;;4930240;28;20035;-78
2024/01/06 09:15:58;;;;;;;25.02;11.43;;;4.40;99.90;;;;;;4976174;28;20078;-78
2024/01/06 09:18:25;;;;;;;28.02;10.85;;;4.40;99.90;;;;;;4930978;28;20054;-79
2024/01/06 09:20:51;;;;;;;21.27;9.18;;;4.40;99.90;;;;;;4927265;28;20063;-78
2024/01/06 09:23:17;;;;;;;24.45;11.15;;;4.50;99.90;;;;;;4945807;28;20060;-77
2024/01/06 09:25:42;;;;;;;26.10;12.93;;;4.50;99.90;;;;;;4928305;28;20046;-77
2024/01/06 09:28:08;;;;;;;31.40;14.68;;;4.60;99.90;;;;;;4929025;28;20042;-77
2024/01/06 09:30:33;;;;;;;31.83;17.30;;;4.50;99.90;;;;;;4927105;28;20039;-77
2024/01/06 09:32:59;;;;;;;31.55;15.20;;;4.50;99.90;;;;;;4928900;28;20043;-77
2024/01/06 09:35:24;;;;;;;32.50;17.10;;;4.50;99.90;;;;;;4961145;28;20540;-77
2024/01/06 09:37:50;;;;;;;34.50;17.45;;;4.60;99.90;;;;;;4945031;28;20374;-77
2024/01/06 09:40:21;;;;;;;31.67;16.05;;;4.60;99.90;;;;;;4944351;28;20035;-77
2024/01/06 09:42:46;;;;;;;27.15;14.32;;;4.60;99.90;;;;;;4945261;28;20456;-78
2024/01/06 09:45:12;;;;;;;27.17;14.23;;;4.60;99.90;;;;;;4940803;28;20030;-77
2024/01/06 09:47:37;;;;;;;25.45;12.98;;;4.60;99.90;;;;;;4944159;28;20035;-77
2024/01/06 09:50:05;;;;;;;32.72;16.98;;;4.60;99.90;;;;;;4958701;28;20049;-77
2024/01/06 09:52:32;;;;;;;34.15;16.67;;;4.60;99.90;;;;;;4933215;28;20037;-77
2024/01/06 09:54:57;;;;;;;28.67;14.77;;;4.60;99.90;;;;;;4943847;28;20501;-77
2024/01/06 09:57:23;;;;;;;35.95;18.40;;;4.60;99.90;;;;;;4944513;28;20034;-77
2024/01/06 09:59:48;;;;;;;30.88;15.82;;;4.60;99.90;;;;;;4943227;28;20055;-77
2024/01/06 10:02:15;;;;;;;33.33;17.20;;;4.60;99.90;;;;;;4943987;28;20045;-77
2024/01/06 10:04:42;;;;;;;30.58;16.08;;;4.60;99.90;;;;;;4945110;28;20624;-77
2024/01/06 10:07:07;;;;;;;22.75;12.52;;;4.60;99.90;;;;;;4926586;28;20023;-77
2024/01/06 10:09:33;;;;;;;28.58;14.77;;;4.60;99.90;;;;;;4929635;28;20058;-76
2024/01/06 10:11:59;;;;;;;27.52;13.80;;;4.60;99.90;;;;;;4944972;28;20039;-77
2024/01/06 10:14:25;;;;;;;29.00;15.98;;;4.60;99.90;;;;;;4928372;28;20114;-77
2024/01/06 10:16:52;;;;;;;29.10;16.60;;;4.50;99.90;;;;;;4927639;28;20051;-77
2024/01/06 10:19:17;;;;;;;28.67;13.90;;;4.40;99.90;;;;;;4929316;28;20034;-77
2024/01/06 10:21:43;;;;;;;27.48;14.00;;;4.40;99.90;;;;;;4941187;28;20058;-77
2024/01/06 10:24:09;;;;;;;33.65;19.13;;;4.40;99.90;;;;;;4929819;28;20027;-77
2024/01/06 10:26:35;;;;;;;26.63;15.60;;;4.40;99.90;;;;;;4927514;28;20042;-77
2024/01/06 10:29:00;;;;;;;29.15;15.38;;;4.30;99.90;;;;;;4962965;28;20057;-78
2024/01/06 10:31:26;;;;;;;23.05;13.98;;;4.30;99.90;;;;;;4944369;28;20489;-77
2024/01/06 10:33:52;;;;;;;28.02;14.98;;;4.30;99.90;;;;;;4928015;28;20709;-77
2024/01/06 10:36:18;;;;;;;23.85;13.70;;;4.30;99.90;;;;;;4927694;28;20031;-77
2024/01/06 10:38:44;;;;;;;19.05;10.75;;;4.30;99.90;;;;;;4957681;28;20493;-77
2024/01/06 10:41:10;;;;;;;23.98;11.45;;;4.30;99.90;;;;;;4946598;28;20031;-77
2024/01/06 10:43:38;;;;;;;22.65;10.93;;;4.30;99.90;;;;;;4925711;28;20054;-77
2024/01/06 10:46:04;;;;;;;23.23;12.80;;;4.40;99.90;;;;;;4944769;28;20515;-77
2024/01/06 10:48:34;;;;;;;26.73;14.30;;;4.40;99.90;;;;;;4943167;28;20043;-77
2024/01/06 10:51:00;;;;;;;28.50;17.25;;;4.30;99.90;;;;;;4942119;28;20043;-77
2024/01/06 10:53:26;;;;;;;30.92;15.05;;;4.20;99.90;;;;;;4929435;28;20046;-77
2024/01/06 10:55:52;;;;;;;28.23;15.45;;;4.10;99.90;;;;;;4928457;28;20030;-77
2024/01/06 10:58:18;;;;;;;25.77;13.25;;;4.10;99.90;;;;;;4943974;28;20054;-77
2024/01/06 11:00:44;;;;;;;24.77;13.00;;;4.10;99.90;;;;;;4926664;28;20710;-77
2024/01/06 11:03:16;;;;;;;26.08;13.23;;;4.10;99.90;;;;;;4956808;28;20050;-77
2024/01/06 11:05:43;;;;;;;26.85;14.43;;;4.10;99.90;;;;;;4944149;28;20532;-77
2024/01/06 11:08:08;;;;;;;25.20;14.10;;;4.00;99.90;;;;;;4956085;28;20049;-77
2024/01/06 11:10:36;;;;;;;28.38;14.73;;;4.00;99.90;;;;;;4927265;28;20411;-77
2024/01/06 11:13:15;;;;;;;24.50;15.05;;;3.90;99.90;;;;;;4938754;28;20508;-77
2024/01/06 11:15:46;;;;;;;27.45;15.15;;;3.90;99.90;;;;;;4945426;28;20035;-77
2024/01/06 11:18:47;;;;;;;24.65;13.50;;;3.80;99.90;;;;;;4956399;28;20032;-77
2024/01/06 11:21:25;;;;;;;21.40;9.90;;;3.80;99.90;;;;;;4900556;29;20713;-76
2024/01/06 11:24:22;;;;;;;22.65;11.80;;;3.90;99.90;;;;;;4950691;28;20532;-77
2024/01/06 11:26:52;;;;;;;20.88;10.65;;;3.80;99.90;;;;;;4955060;28;20373;-77
2024/01/06 11:29:19;;;;;;;25.70;11.32;;;3.80;99.90;;;;;;4924112;28;20082;-77
2024/01/06 11:32:07;;;;;;;27.27;14.07;;;3.80;99.90;;;;;;4943378;28;20118;-76
2024/01/06 11:34:36;;;;;;;24.23;11.93;;;3.80;99.90;;;;;;4957698;28;20532;-76
2024/01/06 11:37:02;;;;;;;31.58;17.67;;;3.90;99.90;;;;;;4925101;28;20122;-77
2024/01/06 11:39:36;;;;;;;29.20;15.15;;;3.90;99.90;;;;;;4943589;28;20126;-79
2024/01/06 11:42:01;;;;;;;27.98;13.48;;;3.80;99.90;;;;;;4944783;28;20496;-77
2024/01/06 11:44:28;;;;;;;26.75;14.02;;;3.80;99.90;;;;;;4943195;28;20034;-77
2024/01/06 11:46:56;;;;;;;23.63;12.23;;;3.90;99.90;;;;;;4955396;28;20035;-77
2024/01/06 11:49:21;;;;;;;25.77;13.80;;;3.90;99.90;;;;;;4957525;28;20034;-77
2024/01/06 11:51:47;;;;;;;21.92;12.27;;;3.80;99.90;;;;;;4927777;28;21318;-78
2024/01/06 11:54:12;;;;;;;24.08;13.55;;;3.80;99.90;;;;;;4944442;28;20421;-78
2024/01/06 11:56:38;;;;;;;22.60;13.18;;;3.90;99.90;;;;;;4951649;28;20042;-77
2024/01/06 11:59:04;;;;;;;25.20;13.90;;;3.90;99.90;;;;;;4947745;28;20433;-79
2024/01/06 12:01:37;;;;;;;26.20;14.63;;;3.90;99.90;;;;;;4948327;28;20035;-77
2024/01/06 12:04:05;;;;;;;25.85;13.82;;;3.80;99.90;;;;;;4948016;28;20041;-77
2024/01/06 12:06:31;;;;;;;27.45;15.45;;;3.80;99.90;;;;;;4932270;28;20046;-77
2024/01/06 12:09:25;;;;;;;25.17;13.38;;;3.80;99.90;;;;;;4932279;28;20417;-77
2024/01/06 12:12:01;;;;;;;34.83;22.73;;;3.80;99.90;;;;;;4957323;28;20074;-78
2024/01/06 12:14:27;;;;;;;37.70;20.55;;;3.70;99.90;;;;;;4932846;28;20034;-78
2024/01/06 12:16:53;;;;;;;45.00;24.90;;;3.60;99.90;;;;;;4946954;28;20030;-78
2024/01/06 12:19:19;;;;;;;48.67;25.42;;;3.60;99.90;;;;;;4945778;28;20049;-78
2024/01/06 12:21:45;;;;;;;43.03;23.05;;;3.50;99.90;;;;;;4944397;28;20039;-78
2024/01/06 12:24:17;;;;;;;41.80;22.08;;;3.50;99.90;;;;;;4940649;28;20026;-77
2024/01/06 12:26:43;;;;;;;31.25;16.00;;;3.40;99.90;;;;;;4961583;28;20038;-77
2024/01/06 12:29:14;;;;;;;40.85;20.90;;;3.50;99.90;;;;;;4932020;28;20031;-78
2024/01/06 12:31:49;;;;;;;30.77;17.13;;;3.50;99.90;;;;;;4930303;28;21569;-77
2024/01/06 12:34:14;;;;;;;38.97;19.83;;;3.40;99.90;;;;;;4955624;28;20069;-78